createdAt,value
2023-02-11T00:00:13.485Z,42.70
2023-02-11T00:01:13.520Z,47.20
2023-02-11T00:03:52.949Z,38.20
2023-02-11T00:04:52.935Z,37.60
2023-02-11T00:05:52.929Z,40.00
2023-02-11T00:06:52.911Z,39.80
2023-02-11T00:07:52.898Z,39.00
2023-02-11T00:08:52.895Z,39.30
2023-02-11T00:09:52.881Z,39.00
2023-02-11T00:10:52.879Z,36.90
2023-02-11T00:11:52.882Z,37.50
2023-02-11T00:12:52.856Z,36.10
2023-02-11T00:13:52.841Z,38.80
2023-02-11T00:14:52.832Z,36.90
2023-02-11T00:15:52.858Z,36.40
2023-02-11T00:16:52.894Z,36.00
2023-02-11T00:17:52.817Z,36.80
2023-02-11T00:18:52.780Z,35.90
2023-02-11T00:19:52.777Z,36.70
2023-02-11T00:20:52.760Z,37.60
2023-02-11T00:21:52.767Z,37.40
2023-02-11T00:22:52.739Z,37.70
2023-02-11T00:23:52.741Z,37.40
2023-02-11T00:24:52.724Z,35.70
2023-02-11T00:25:53.032Z,35.90
2023-02-11T00:26:52.710Z,35.90
2023-02-11T00:27:52.700Z,35.10
2023-02-11T00:28:52.678Z,35.00
2023-02-11T00:29:52.676Z,35.20
2023-02-11T00:30:52.714Z,34.60
2023-02-11T00:31:52.867Z,34.10
2023-02-11T00:32:52.630Z,33.00
2023-02-11T00:33:52.631Z,34.10
2023-02-11T00:34:52.613Z,33.00
2023-02-11T00:35:53.003Z,32.50
2023-02-11T00:36:52.598Z,32.50
2023-02-11T00:37:52.586Z,32.20
2023-02-11T00:38:52.572Z,32.20
2023-02-11T00:39:52.570Z,33.00
2023-02-11T00:40:52.545Z,33.00
2023-02-11T00:41:52.555Z,32.60
2023-02-11T00:42:52.538Z,33.70
2023-02-11T00:43:52.552Z,34.20
2023-02-11T00:44:52.510Z,32.70
2023-02-11T00:45:52.773Z,32.50
2023-02-11T00:46:52.495Z,34.30
2023-02-11T00:47:52.484Z,34.20
2023-02-11T00:48:52.465Z,34.50
2023-02-11T00:49:52.460Z,34.70
2023-02-11T00:50:52.466Z,33.60
2023-02-11T00:51:52.448Z,33.30
2023-02-11T00:52:52.432Z,34.00
2023-02-11T00:53:52.436Z,34.70
2023-02-11T00:54:53.593Z,34.20
2023-02-11T00:55:53.534Z,34.10
2023-02-11T00:56:53.559Z,33.90
2023-02-11T00:57:53.531Z,33.30
2023-02-11T00:58:53.530Z,34.40
2023-02-11T00:59:53.527Z,33.20
2023-02-11T01:00:53.511Z,33.40
2023-02-11T01:01:53.513Z,34.00
2023-02-11T01:02:53.476Z,33.30
2023-02-11T01:03:53.482Z,33.70
2023-02-11T01:04:53.508Z,34.50
2023-02-11T01:05:53.465Z,34.80
2023-02-11T01:06:53.451Z,35.10
2023-02-11T01:07:53.419Z,34.60
2023-02-11T01:08:53.425Z,34.60
2023-02-11T01:09:54.404Z,34.30
2023-02-11T01:10:53.396Z,34.00
2023-02-11T01:11:53.432Z,35.90
2023-02-11T01:12:53.376Z,33.00
2023-02-11T01:13:53.374Z,34.20
2023-02-11T01:14:53.361Z,34.20
2023-02-11T01:15:53.712Z,34.90
2023-02-11T01:16:53.350Z,35.30
2023-02-11T01:17:53.333Z,35.30
2023-02-11T01:18:53.333Z,33.80
2023-02-11T01:19:53.310Z,34.10
2023-02-11T01:20:53.307Z,34.50
2023-02-11T01:21:53.350Z,34.10
2023-02-11T01:22:53.282Z,33.10
2023-02-11T01:23:53.317Z,33.80
2023-02-11T01:24:53.277Z,32.40
2023-02-11T01:25:53.488Z,33.90
2023-02-11T01:26:53.260Z,33.30
2023-02-11T01:27:53.242Z,32.70
2023-02-11T01:28:53.234Z,33.30
2023-02-11T01:29:53.228Z,31.50
2023-02-11T01:30:53.260Z,32.70
2023-02-11T01:31:53.259Z,32.20
2023-02-11T01:32:53.235Z,33.50
2023-02-11T01:33:53.204Z,32.50
2023-02-11T01:34:53.180Z,32.60
2023-02-11T01:35:53.438Z,31.60
2023-02-11T01:36:53.218Z,31.20
2023-02-11T01:37:53.246Z,34.10
2023-02-11T01:38:53.156Z,33.10
2023-02-11T01:39:53.148Z,32.20
2023-02-11T01:40:53.206Z,32.40
2023-02-11T01:41:53.138Z,32.90
2023-02-11T01:42:53.132Z,31.90
2023-02-11T01:43:53.073Z,31.50
2023-02-11T01:44:53.105Z,32.10
2023-02-11T01:45:53.283Z,30.30
2023-02-11T01:46:53.141Z,31.60
2023-02-11T01:47:53.068Z,30.60
2023-02-11T01:48:53.134Z,31.30
2023-02-11T01:49:53.080Z,30.80
2023-02-11T01:50:53.076Z,31.50
2023-02-11T01:51:53.032Z,31.00
2023-02-11T01:52:53.019Z,31.90
2023-02-11T01:53:53.007Z,29.90
2023-02-11T01:54:52.990Z,31.40
2023-02-11T01:55:52.982Z,32.80
2023-02-11T01:56:53.031Z,31.70
2023-02-11T01:57:52.952Z,32.20
2023-02-11T01:58:52.974Z,31.90
2023-02-11T01:59:52.947Z,31.90
2023-02-11T02:00:52.924Z,30.70
2023-02-11T02:01:53.004Z,32.10
2023-02-11T02:02:52.908Z,33.50
2023-02-11T02:03:52.956Z,32.20
2023-02-11T02:04:52.921Z,32.60
2023-02-11T02:05:53.075Z,32.00
2023-02-11T02:06:52.881Z,31.30
2023-02-11T02:07:52.921Z,32.50
2023-02-11T02:08:52.885Z,32.40
2023-02-11T02:09:52.844Z,32.20
2023-02-11T02:10:52.827Z,33.00
2023-02-11T02:11:52.831Z,33.20
2023-02-11T02:12:52.826Z,33.40
2023-02-11T02:13:52.812Z,31.20
2023-02-11T02:14:52.781Z,32.70
2023-02-11T02:15:53.038Z,32.10
2023-02-11T02:16:52.773Z,33.10
2023-02-11T02:17:52.773Z,32.00
2023-02-11T02:18:52.774Z,32.10
2023-02-11T02:19:52.752Z,30.40
2023-02-11T02:20:52.746Z,30.70
2023-02-11T02:21:52.724Z,33.40
2023-02-11T02:22:52.740Z,33.70
2023-02-11T02:23:52.707Z,33.70
2023-02-11T02:24:52.697Z,33.80
2023-02-11T02:25:52.667Z,32.00
2023-02-11T02:26:52.683Z,33.10
2023-02-11T02:27:52.693Z,32.00
2023-02-11T02:28:52.630Z,31.20
2023-02-11T02:29:52.640Z,31.50
2023-02-11T02:30:52.758Z,32.30
2023-02-11T02:31:52.691Z,32.20
2023-02-11T02:32:52.635Z,32.00
2023-02-11T02:33:52.593Z,32.30
2023-02-11T02:34:52.616Z,31.20
2023-02-11T02:35:52.592Z,31.60
2023-02-11T02:36:52.583Z,32.20
2023-02-11T02:37:52.578Z,33.00
2023-02-11T02:38:52.569Z,32.40
2023-02-11T02:39:52.538Z,31.60
2023-02-11T02:40:52.528Z,33.10
2023-02-11T02:41:52.545Z,32.50
2023-02-11T02:42:52.589Z,33.60
2023-02-11T02:43:52.509Z,33.10
2023-02-11T02:44:52.495Z,32.20
2023-02-11T02:45:52.613Z,32.60
2023-02-11T02:46:52.503Z,32.30
2023-02-11T02:47:52.669Z,31.50
2023-02-11T02:48:52.449Z,32.20
2023-02-11T02:49:52.459Z,32.80
2023-02-11T02:50:52.447Z,31.10
2023-02-11T02:51:52.441Z,31.00
2023-02-11T02:52:52.398Z,32.90
2023-02-11T02:53:52.438Z,32.10
2023-02-11T02:54:52.407Z,32.60
2023-02-11T02:55:52.552Z,33.40
2023-02-11T02:56:52.410Z,32.60
2023-02-11T02:57:52.389Z,32.10
2023-02-11T02:58:52.408Z,32.80
2023-02-11T02:59:52.342Z,32.10
2023-02-11T03:00:52.412Z,33.60
2023-02-11T03:01:52.326Z,33.30
2023-02-11T03:02:52.320Z,31.60
2023-02-11T03:03:52.367Z,33.00
2023-02-11T03:04:52.310Z,32.30
2023-02-11T03:05:52.738Z,33.20
2023-02-11T03:06:52.284Z,34.00
2023-02-11T03:07:52.299Z,32.00
2023-02-11T03:08:52.272Z,35.50
2023-02-11T03:09:52.254Z,33.70
2023-02-11T03:10:52.248Z,33.70
2023-02-11T03:11:52.239Z,33.00
2023-02-11T03:12:52.236Z,33.30
2023-02-11T03:13:52.239Z,34.00
2023-02-11T03:14:52.199Z,32.60
2023-02-11T03:15:52.603Z,33.10
2023-02-11T03:16:52.204Z,32.70
2023-02-11T03:17:52.184Z,31.90
2023-02-11T03:18:52.180Z,32.80
2023-02-11T03:19:52.205Z,34.30
2023-02-11T03:20:52.148Z,32.60
2023-02-11T03:21:52.126Z,33.00
2023-02-11T03:22:52.134Z,32.70
2023-02-11T03:23:52.124Z,33.50
2023-02-11T03:24:52.119Z,32.50
2023-02-11T03:25:52.303Z,32.80
2023-02-11T03:26:52.107Z,32.90
2023-02-11T03:27:52.082Z,32.90
2023-02-11T03:28:52.079Z,32.10
2023-02-11T03:29:52.029Z,34.20
2023-02-11T03:30:52.114Z,33.00
2023-02-11T03:31:52.146Z,32.20
2023-02-11T03:32:52.025Z,33.20
2023-02-11T03:33:52.046Z,33.10
2023-02-11T03:34:51.988Z,32.70
2023-02-11T03:35:52.231Z,32.80
2023-02-11T03:36:52.008Z,33.90
2023-02-11T03:37:51.982Z,32.00
2023-02-11T03:38:51.978Z,32.10
2023-02-11T03:39:51.973Z,32.10
2023-02-11T03:40:51.972Z,33.80
2023-02-11T03:41:51.945Z,33.80
2023-02-11T03:42:51.936Z,31.80
2023-02-11T03:43:51.953Z,34.00
2023-02-11T03:44:51.918Z,33.60
2023-02-11T03:45:52.365Z,33.80
2023-02-11T03:46:51.891Z,33.40
2023-02-11T03:47:51.887Z,32.20
2023-02-11T03:48:51.883Z,32.20
2023-02-11T03:49:51.863Z,32.50
2023-02-11T03:50:51.860Z,31.50
2023-02-11T03:51:51.840Z,31.70
2023-02-11T03:52:51.814Z,32.50
2023-02-11T03:53:51.813Z,32.50
2023-02-11T03:54:51.813Z,32.10
2023-02-11T03:55:52.133Z,32.50
2023-02-11T03:56:51.793Z,32.60
2023-02-11T03:57:51.778Z,32.60
2023-02-11T03:58:51.775Z,32.60
2023-02-11T03:59:51.741Z,32.30
2023-02-11T04:00:51.748Z,31.70
2023-02-11T04:01:51.723Z,33.10
2023-02-11T04:02:51.706Z,32.20
2023-02-11T04:03:52.751Z,32.50
2023-02-11T04:04:51.697Z,32.10
2023-02-11T04:05:52.049Z,32.70
2023-02-11T04:06:51.685Z,31.60
2023-02-11T04:07:51.688Z,31.80
2023-02-11T04:08:51.719Z,32.20
2023-02-11T04:09:51.675Z,33.60
2023-02-11T04:10:51.638Z,33.20
2023-02-11T04:11:51.641Z,33.20
2023-02-11T04:12:51.649Z,32.20
2023-02-11T04:13:51.652Z,32.20
2023-02-11T04:14:51.621Z,32.80
2023-02-11T04:15:51.859Z,31.50
2023-02-11T04:16:51.594Z,32.00
2023-02-11T04:17:51.569Z,32.60
2023-02-11T04:18:51.550Z,32.70
2023-02-11T04:19:51.559Z,32.70
2023-02-11T04:20:51.538Z,32.60
2023-02-11T04:21:51.511Z,32.10
2023-02-11T04:22:51.542Z,32.20
2023-02-11T04:23:51.529Z,32.50
2023-02-11T04:24:51.504Z,32.30
2023-02-11T04:25:51.840Z,33.20
2023-02-11T04:26:51.485Z,32.50
2023-02-11T04:27:51.496Z,33.60
2023-02-11T04:28:51.468Z,31.50
2023-02-11T04:29:51.460Z,32.50
2023-02-11T04:30:51.522Z,32.20
2023-02-11T04:31:51.492Z,32.10
2023-02-11T04:32:51.419Z,33.30
2023-02-11T04:33:51.389Z,32.10
2023-02-11T04:34:51.417Z,32.30
2023-02-11T04:35:51.692Z,32.40
2023-02-11T04:36:51.377Z,31.70
2023-02-11T04:37:51.367Z,31.20
2023-02-11T04:38:51.337Z,33.20
2023-02-11T04:39:51.363Z,32.20
2023-02-11T04:40:51.356Z,32.30
2023-02-11T04:41:51.317Z,32.80
2023-02-11T04:42:51.305Z,33.70
2023-02-11T04:43:51.301Z,32.50
2023-02-11T04:44:51.305Z,32.50
2023-02-11T04:45:51.700Z,32.30
2023-02-11T04:46:51.273Z,32.70
2023-02-11T04:47:51.257Z,32.20
2023-02-11T04:48:51.242Z,33.30
2023-02-11T04:49:51.253Z,31.90
2023-02-11T04:50:51.217Z,32.70
2023-02-11T04:51:51.226Z,32.90
2023-02-11T04:52:51.207Z,32.00
2023-02-11T04:53:51.205Z,33.10
2023-02-11T04:54:51.214Z,33.80
2023-02-11T04:55:51.581Z,32.50
2023-02-11T04:56:51.167Z,31.90
2023-02-11T04:57:51.152Z,33.60
2023-02-11T04:58:51.149Z,33.00
2023-02-11T04:59:51.186Z,32.10
2023-02-11T05:00:51.165Z,33.30
2023-02-11T05:01:51.137Z,32.80
2023-02-11T05:02:51.104Z,32.60
2023-02-11T05:03:51.150Z,33.00
2023-02-11T05:04:51.105Z,32.50
2023-02-11T05:05:51.386Z,33.80
2023-02-11T05:06:51.089Z,32.50
2023-02-11T05:07:51.059Z,34.00
2023-02-11T05:08:51.065Z,34.70
2023-02-11T05:09:51.041Z,32.80
2023-02-11T05:10:51.045Z,33.60
2023-02-11T05:11:51.018Z,32.70
2023-02-11T05:12:51.024Z,31.70
2023-02-11T05:13:51.068Z,32.40
2023-02-11T05:14:51.001Z,33.10
2023-02-11T05:15:51.284Z,33.00
2023-02-11T05:16:51.006Z,32.20
2023-02-11T05:17:50.953Z,32.90
2023-02-11T05:18:52.637Z,31.20
2023-02-11T05:19:51.947Z,33.70
2023-02-11T05:20:50.937Z,32.70
2023-02-11T05:22:02.033Z,31.40
2023-02-11T05:22:52.908Z,32.60
2023-02-11T05:23:50.917Z,34.00
2023-02-11T05:24:50.895Z,33.20
2023-02-11T05:25:51.089Z,33.40
2023-02-11T05:26:50.867Z,34.80
2023-02-11T05:27:50.856Z,33.30
2023-02-11T05:28:50.850Z,32.80
2023-02-11T05:29:50.834Z,33.00
2023-02-11T05:30:50.941Z,33.50
2023-02-11T05:31:50.834Z,33.00
2023-02-11T05:32:50.817Z,35.40
2023-02-11T05:33:50.781Z,35.50
2023-02-11T05:34:50.786Z,37.50
2023-02-11T05:35:51.046Z,38.30
2023-02-11T05:36:50.775Z,43.60
2023-02-11T05:37:50.745Z,40.60
2023-02-11T05:38:50.758Z,40.70
2023-02-11T05:39:50.723Z,38.30
2023-02-11T05:40:50.720Z,36.20
2023-02-11T05:41:50.725Z,34.90
2023-02-11T05:42:50.709Z,34.40
2023-02-11T05:43:50.689Z,34.10
2023-02-11T05:44:50.849Z,33.90
2023-02-11T05:45:51.996Z,34.00
2023-02-11T05:46:50.686Z,34.30
2023-02-11T05:47:50.654Z,33.00
2023-02-11T05:48:50.674Z,32.80
2023-02-11T05:49:50.655Z,33.00
2023-02-11T05:50:50.650Z,34.20
2023-02-11T05:51:50.627Z,34.90
2023-02-11T05:52:50.629Z,34.00
2023-02-11T05:53:50.627Z,33.10
2023-02-11T05:54:50.606Z,34.40
2023-02-11T05:55:50.950Z,34.30
2023-02-11T05:56:50.549Z,33.20
2023-02-11T05:57:50.561Z,32.90
2023-02-11T05:58:50.559Z,31.70
2023-02-11T05:59:50.596Z,35.80
2023-02-11T06:00:50.550Z,33.60
2023-02-11T06:01:50.534Z,33.10
2023-02-11T06:02:50.571Z,33.10
2023-02-11T06:03:50.515Z,33.20
2023-02-11T06:04:50.514Z,33.50
2023-02-11T06:05:50.874Z,32.30
2023-02-11T06:06:50.480Z,33.90
2023-02-11T06:07:50.485Z,32.80
2023-02-11T06:08:50.448Z,32.90
2023-02-11T06:09:50.463Z,32.70
2023-02-11T06:10:50.444Z,33.60
2023-02-11T06:11:50.467Z,33.90
2023-02-11T06:12:50.426Z,32.10
2023-02-11T06:13:50.409Z,33.60
2023-02-11T06:14:50.434Z,31.30
2023-02-11T06:15:50.799Z,33.30
2023-02-11T06:16:50.388Z,33.60
2023-02-11T06:17:50.363Z,32.20
2023-02-11T06:18:50.363Z,32.10
2023-02-11T06:19:50.345Z,32.80
2023-02-11T06:20:50.382Z,33.20
2023-02-11T06:21:50.321Z,33.10
2023-02-11T06:22:50.310Z,32.60
2023-02-11T06:23:50.317Z,32.90
2023-02-11T06:25:00.888Z,32.30
2023-02-11T06:25:52.569Z,33.80
2023-02-11T06:26:50.266Z,32.10
2023-02-11T06:27:50.280Z,33.20
2023-02-11T06:28:50.274Z,30.80
2023-02-11T06:29:50.227Z,31.80
2023-02-11T06:30:50.351Z,31.60
2023-02-11T06:31:50.416Z,32.80
2023-02-11T06:32:50.280Z,31.70
2023-02-11T06:33:50.218Z,31.90
2023-02-11T06:34:50.217Z,32.50
2023-02-11T06:35:50.530Z,31.00
2023-02-11T06:36:50.181Z,31.50
2023-02-11T06:37:50.183Z,31.00
2023-02-11T06:38:50.200Z,32.10
2023-02-11T06:39:50.209Z,31.40
2023-02-11T06:40:50.186Z,32.30
2023-02-11T06:41:50.216Z,32.50
2023-02-11T06:42:50.134Z,31.80
2023-02-11T06:43:50.116Z,33.00
2023-02-11T06:44:50.148Z,30.60
2023-02-11T06:45:50.374Z,32.20
2023-02-11T06:46:50.174Z,31.10
2023-02-11T06:47:50.071Z,31.80
2023-02-11T06:48:50.093Z,31.50
2023-02-11T06:49:50.078Z,31.10
2023-02-11T06:50:50.052Z,31.70
2023-02-11T06:51:50.093Z,31.40
2023-02-11T06:52:50.047Z,31.80
2023-02-11T06:53:51.021Z,33.00
2023-02-11T06:54:50.031Z,31.00
2023-02-11T06:55:50.456Z,32.00
2023-02-11T06:56:49.996Z,32.60
2023-02-11T06:57:49.983Z,31.80
2023-02-11T06:58:49.985Z,32.50
2023-02-11T06:59:49.965Z,32.10
2023-02-11T07:00:49.939Z,31.60
2023-02-11T07:01:50.005Z,31.80
2023-02-11T07:02:49.970Z,32.80
2023-02-11T07:03:49.907Z,31.90
2023-02-11T07:04:50.905Z,31.40
2023-02-11T07:05:50.169Z,34.40
2023-02-11T07:06:49.902Z,32.00
2023-02-11T07:07:49.863Z,32.10
2023-02-11T07:08:49.868Z,30.90
2023-02-11T07:09:49.871Z,32.50
2023-02-11T07:10:49.863Z,33.10
2023-02-11T07:11:49.853Z,32.40
2023-02-11T07:12:49.841Z,32.60
2023-02-11T07:13:49.818Z,31.70
2023-02-11T07:14:49.816Z,33.20
2023-02-11T07:15:50.134Z,33.10
2023-02-11T07:16:49.832Z,32.40
2023-02-11T07:17:49.780Z,32.40
2023-02-11T07:18:49.797Z,32.40
2023-02-11T07:19:49.768Z,33.30
2023-02-11T07:20:49.756Z,31.70
2023-02-11T07:21:49.767Z,33.60
2023-02-11T07:22:49.713Z,32.40
2023-02-11T07:23:49.722Z,31.90
2023-02-11T07:24:50.721Z,32.40
2023-02-11T07:25:50.032Z,32.40
2023-02-11T07:26:49.708Z,31.10
2023-02-11T07:27:49.686Z,33.50
2023-02-11T07:28:49.691Z,32.60
2023-02-11T07:29:49.665Z,32.10
2023-02-11T07:30:49.736Z,31.90
2023-02-11T07:31:49.741Z,32.80
2023-02-11T07:32:49.638Z,31.20
2023-02-11T07:33:49.641Z,32.70
2023-02-11T07:34:49.678Z,32.60
2023-02-11T07:35:49.922Z,32.60
2023-02-11T07:36:49.633Z,31.30
2023-02-11T07:37:49.580Z,32.80
2023-02-11T07:38:49.566Z,32.40
2023-02-11T07:39:49.556Z,31.40
2023-02-11T07:40:49.593Z,33.00
2023-02-11T07:41:49.579Z,33.40
2023-02-11T07:42:49.549Z,33.10
2023-02-11T07:43:49.526Z,32.50
2023-02-11T07:44:50.635Z,31.80
2023-02-11T07:45:50.837Z,33.20
2023-02-11T07:46:49.534Z,32.40
2023-02-11T07:47:49.486Z,32.90
2023-02-11T07:48:49.472Z,32.60
2023-02-11T07:49:49.481Z,32.40
2023-02-11T07:50:49.480Z,32.30
2023-02-11T07:51:49.460Z,32.70
2023-02-11T07:52:49.437Z,32.70
2023-02-11T07:53:49.416Z,32.80
2023-02-11T07:54:49.429Z,33.10
2023-02-11T07:55:49.819Z,33.60
2023-02-11T07:56:49.428Z,32.00
2023-02-11T07:57:49.405Z,32.60
2023-02-11T07:58:49.401Z,32.80
2023-02-11T07:59:49.378Z,33.50
2023-02-11T08:00:49.395Z,32.40
2023-02-11T08:01:49.401Z,32.20
2023-02-11T08:02:49.335Z,34.00
2023-02-11T08:03:49.337Z,33.10
2023-02-11T08:04:49.349Z,32.70
2023-02-11T08:05:49.729Z,33.00
2023-02-11T08:06:49.329Z,33.00
2023-02-11T08:07:49.306Z,31.30
2023-02-11T08:08:49.289Z,33.00
2023-02-11T08:09:49.280Z,33.50
2023-02-11T08:10:49.564Z,33.10
2023-02-11T08:11:49.328Z,32.70
2023-02-11T08:12:49.238Z,32.00
2023-02-11T08:13:49.209Z,33.30
2023-02-11T08:14:49.248Z,31.60
2023-02-11T08:15:49.478Z,32.70
2023-02-11T08:16:49.293Z,35.10
2023-02-11T08:17:49.200Z,32.90
2023-02-11T08:18:49.234Z,33.40
2023-02-11T08:19:49.176Z,32.20
2023-02-11T08:20:49.631Z,32.60
2023-02-11T08:21:49.160Z,33.00
2023-02-11T08:22:49.147Z,33.80
2023-02-11T08:23:49.118Z,31.80
2023-02-11T08:24:51.416Z,32.40
2023-02-11T08:25:50.099Z,31.90
2023-02-11T08:26:49.089Z,32.80
2023-02-11T08:27:49.082Z,31.30
2023-02-11T08:28:49.076Z,32.50
2023-02-11T08:29:49.056Z,31.90
2023-02-11T08:30:49.595Z,33.60
2023-02-11T08:31:49.107Z,31.50
2023-02-11T08:32:49.089Z,33.10
2023-02-11T08:33:49.048Z,32.30
2023-02-11T08:34:49.034Z,31.70
2023-02-11T08:35:49.016Z,35.90
2023-02-11T08:36:49.003Z,33.10
2023-02-11T08:37:49.035Z,31.40
2023-02-11T08:38:48.992Z,33.30
2023-02-11T08:39:48.988Z,40.30
2023-02-11T08:40:49.196Z,33.50
2023-02-11T08:41:49.089Z,33.00
2023-02-11T08:42:48.962Z,33.00
2023-02-11T08:43:48.940Z,33.90
2023-02-11T08:44:48.918Z,33.10
2023-02-11T08:45:49.348Z,32.80
2023-02-11T08:46:48.907Z,34.30
2023-02-11T08:47:48.934Z,32.70
2023-02-11T08:48:48.911Z,35.40
2023-02-11T08:49:48.902Z,33.50
2023-02-11T08:50:48.882Z,33.40
2023-02-11T08:51:48.864Z,33.70
2023-02-11T08:52:48.876Z,32.90
2023-02-11T08:53:48.845Z,33.70
2023-02-11T08:54:48.833Z,32.70
2023-02-11T08:55:49.062Z,32.20
2023-02-11T08:56:48.831Z,32.60
2023-02-11T08:57:48.841Z,35.00
2023-02-11T08:58:48.789Z,33.40
2023-02-11T08:59:48.786Z,34.00
2023-02-11T09:00:49.290Z,33.70
2023-02-11T09:01:48.910Z,33.00
2023-02-11T09:02:48.774Z,33.40
2023-02-11T09:03:48.889Z,34.40
2023-02-11T09:04:48.721Z,33.30
2023-02-11T09:05:48.728Z,33.00
2023-02-11T09:06:48.732Z,34.10
2023-02-11T09:07:48.795Z,33.80
2023-02-11T09:08:48.816Z,33.70
2023-02-11T09:09:48.712Z,33.40
2023-02-11T09:10:49.062Z,32.40
2023-02-11T09:11:48.656Z,33.50
2023-02-11T09:12:48.732Z,33.00
2023-02-11T09:13:48.676Z,33.50
2023-02-11T09:14:48.653Z,34.20
2023-02-11T09:15:48.677Z,32.40
2023-02-11T09:16:48.889Z,33.10
2023-02-11T09:17:48.687Z,33.20
2023-02-11T09:18:48.631Z,32.70
2023-02-11T09:19:48.634Z,32.50
2023-02-11T09:20:48.844Z,33.30
2023-02-11T09:21:48.586Z,33.30
2023-02-11T09:22:48.574Z,33.10
2023-02-11T09:23:48.582Z,32.70
2023-02-11T09:24:48.542Z,33.30
2023-02-11T09:25:48.782Z,32.60
2023-02-11T09:26:48.600Z,33.00
2023-02-11T09:27:48.536Z,32.70
2023-02-11T09:28:48.526Z,32.40
2023-02-11T09:29:48.549Z,32.20
2023-02-11T09:30:48.681Z,33.30
2023-02-11T09:31:48.639Z,32.50
2023-02-11T09:32:48.452Z,34.30
2023-02-11T09:33:48.491Z,33.00
2023-02-11T09:34:48.469Z,32.70
2023-02-11T09:35:48.441Z,32.50
2023-02-11T09:36:48.459Z,33.10
2023-02-11T09:37:48.449Z,32.10
2023-02-11T09:38:48.440Z,31.80
2023-02-11T09:39:48.438Z,31.50
2023-02-11T09:40:48.619Z,31.80
2023-02-11T09:41:48.356Z,32.10
2023-02-11T09:42:48.387Z,32.90
2023-02-11T09:43:48.405Z,33.20
2023-02-11T09:44:48.373Z,32.20
2023-02-11T09:45:48.429Z,34.00
2023-02-11T09:46:48.338Z,32.40
2023-02-11T09:47:48.322Z,32.70
2023-02-11T09:48:48.325Z,32.40
2023-02-11T09:49:48.333Z,32.40
2023-02-11T09:50:48.429Z,33.40
2023-02-11T09:51:48.317Z,34.00
2023-02-11T09:52:48.288Z,33.00
2023-02-11T09:53:48.330Z,32.50
2023-02-11T09:54:48.264Z,33.80
2023-02-11T09:55:48.257Z,34.40
2023-02-11T09:56:48.236Z,33.70
2023-02-11T09:57:48.244Z,33.80
2023-02-11T09:58:48.230Z,37.30
2023-02-11T09:59:48.237Z,35.50
2023-02-11T10:00:48.344Z,33.40
2023-02-11T10:01:48.270Z,33.00
2023-02-11T10:02:48.201Z,34.00
2023-02-11T10:03:48.223Z,32.10
2023-02-11T10:04:48.180Z,33.60
2023-02-11T10:05:48.196Z,33.50
2023-02-11T10:06:48.199Z,32.70
2023-02-11T10:07:48.159Z,34.00
2023-02-11T10:08:48.156Z,34.90
2023-02-11T10:09:48.141Z,34.60
2023-02-11T10:10:48.111Z,35.90
2023-02-11T10:11:48.109Z,34.20
2023-02-11T10:12:48.107Z,34.90
2023-02-11T10:13:48.135Z,34.10
2023-02-11T10:14:48.072Z,33.50
2023-02-11T10:15:48.105Z,34.30
2023-02-11T10:16:48.035Z,34.00
2023-02-11T10:17:48.033Z,34.30
2023-02-11T10:18:48.046Z,35.10
2023-02-11T10:19:48.022Z,34.50
2023-02-11T10:20:48.040Z,34.90
2023-02-11T10:21:48.012Z,33.30
2023-02-11T10:22:48.000Z,35.10
2023-02-11T10:23:47.992Z,35.00
2023-02-11T10:24:48.020Z,36.30
2023-02-11T10:25:47.974Z,33.40
2023-02-11T10:26:47.965Z,34.50
2023-02-11T10:27:47.985Z,34.00
2023-02-11T10:28:47.939Z,34.40
2023-02-11T10:29:47.915Z,35.40
2023-02-11T10:30:48.032Z,34.40
2023-02-11T10:31:47.947Z,34.30
2023-02-11T10:32:47.897Z,33.90
2023-02-11T10:33:47.886Z,34.00
2023-02-11T10:34:47.902Z,33.70
2023-02-11T10:35:47.891Z,33.90
2023-02-11T10:36:47.876Z,33.90
2023-02-11T10:37:47.826Z,34.60
2023-02-11T10:38:47.868Z,32.90
2023-02-11T10:39:47.832Z,35.70
2023-02-11T10:40:47.825Z,34.10
2023-02-11T10:41:47.788Z,33.40
2023-02-11T10:42:47.800Z,34.00
2023-02-11T10:43:47.816Z,32.90
2023-02-11T10:44:47.776Z,35.30
2023-02-11T10:45:47.771Z,33.70
2023-02-11T10:46:47.823Z,33.60
2023-02-11T10:47:47.714Z,33.90
2023-02-11T10:48:47.750Z,34.00
2023-02-11T10:49:47.706Z,33.50
2023-02-11T10:50:47.759Z,33.10
2023-02-11T10:51:47.702Z,33.50
2023-02-11T10:52:47.690Z,33.90
2023-02-11T10:53:47.701Z,33.80
2023-02-11T10:54:47.679Z,34.40
2023-02-11T10:55:47.762Z,33.10
2023-02-11T10:56:47.667Z,33.40
2023-02-11T10:57:47.658Z,34.10
2023-02-11T10:58:47.662Z,32.80
2023-02-11T10:59:47.613Z,33.50
2023-02-11T11:00:47.709Z,34.60
2023-02-11T11:01:47.647Z,34.90
2023-02-11T11:02:47.617Z,33.40
2023-02-11T11:03:47.613Z,32.60
2023-02-11T11:04:47.637Z,33.20
2023-02-11T11:05:47.575Z,32.70
2023-02-11T11:06:47.560Z,34.30
2023-02-11T11:07:47.553Z,32.80
2023-02-11T11:08:47.559Z,32.80
2023-02-11T11:09:47.535Z,32.10
2023-02-11T11:10:47.528Z,33.00
2023-02-11T11:11:47.505Z,34.10
2023-02-11T11:12:47.515Z,31.30
2023-02-11T11:13:47.485Z,32.40
2023-02-11T11:14:47.485Z,32.70
2023-02-11T11:15:47.524Z,31.40
2023-02-11T11:16:47.467Z,31.00
2023-02-11T11:17:47.445Z,32.80
2023-02-11T11:18:47.444Z,30.80
2023-02-11T11:19:47.516Z,31.30
2023-02-11T11:20:48.681Z,32.60
2023-02-11T11:21:47.445Z,32.50
2023-02-11T11:22:47.416Z,32.80
2023-02-11T11:23:47.342Z,31.10
2023-02-11T11:24:47.410Z,29.90
2023-02-11T11:25:47.359Z,29.20
2023-02-11T11:26:47.365Z,31.60
2023-02-11T11:27:47.348Z,29.60
2023-02-11T11:28:47.328Z,30.40
2023-02-11T11:29:47.329Z,28.90
2023-02-11T11:30:48.452Z,30.50
2023-02-11T11:31:47.368Z,30.00
2023-02-11T11:32:47.288Z,30.00
2023-02-11T11:33:47.297Z,30.90
2023-02-11T11:34:47.241Z,29.30
2023-02-11T11:35:47.271Z,30.80
2023-02-11T11:36:47.251Z,29.30
2023-02-11T11:37:47.226Z,30.00
2023-02-11T11:38:47.247Z,29.30
2023-02-11T11:39:47.240Z,29.30
2023-02-11T11:40:47.201Z,28.90
2023-02-11T11:41:47.190Z,28.60
2023-02-11T11:42:47.175Z,29.00
2023-02-11T11:43:47.166Z,29.90
2023-02-11T11:44:47.175Z,28.20
2023-02-11T11:45:47.140Z,29.70
2023-02-11T11:46:47.230Z,29.40
2023-02-11T11:47:47.139Z,28.50
2023-02-11T11:48:47.099Z,28.60
2023-02-11T11:49:47.119Z,30.10
2023-02-11T11:50:47.358Z,30.00
2023-02-11T11:51:47.144Z,28.80
2023-02-11T11:52:47.227Z,29.00
2023-02-11T11:53:47.159Z,28.60
2023-02-11T11:54:47.199Z,29.50
2023-02-11T11:55:47.163Z,28.20
2023-02-11T11:56:47.059Z,29.70
2023-02-11T11:57:47.066Z,29.00
2023-02-11T11:58:47.113Z,28.10
2023-02-11T11:59:47.059Z,27.50
2023-02-11T12:00:47.007Z,28.40
2023-02-11T12:01:47.082Z,27.60
2023-02-11T12:02:47.053Z,28.50
2023-02-11T12:03:46.954Z,28.60
2023-02-11T12:04:47.148Z,27.50
2023-02-11T12:05:47.051Z,26.50
2023-02-11T12:06:46.971Z,27.20
2023-02-11T12:07:46.937Z,26.80
2023-02-11T12:08:46.982Z,27.20
2023-02-11T12:09:46.931Z,27.30
2023-02-11T12:10:46.899Z,27.20
2023-02-11T12:11:46.908Z,26.70
2023-02-11T12:12:47.018Z,26.20
2023-02-11T12:13:47.870Z,26.00
2023-02-11T12:14:46.881Z,25.90
2023-02-11T12:15:46.855Z,26.40
2023-02-11T12:16:46.894Z,26.40
2023-02-11T12:17:46.789Z,25.60
2023-02-11T12:18:47.600Z,26.60
2023-02-11T12:19:47.843Z,25.30
2023-02-11T12:20:46.825Z,25.60
2023-02-11T12:21:46.778Z,24.50
2023-02-11T12:22:46.777Z,25.20
2023-02-11T12:23:46.753Z,26.10
2023-02-11T12:24:46.781Z,26.60
2023-02-11T12:25:46.782Z,27.20
2023-02-11T12:26:46.772Z,26.50
2023-02-11T12:27:46.753Z,26.10
2023-02-11T12:28:46.701Z,25.90
2023-02-11T12:29:46.748Z,26.40
2023-02-11T12:30:46.797Z,24.90
2023-02-11T12:31:46.785Z,26.80
2023-02-11T12:32:46.691Z,26.30
2023-02-11T12:33:46.684Z,26.40
2023-02-11T12:34:46.823Z,25.80
2023-02-11T12:35:46.678Z,26.00
2023-02-11T12:36:46.644Z,25.60
2023-02-11T12:37:46.642Z,26.50
2023-02-11T12:38:46.690Z,26.40
2023-02-11T12:39:46.612Z,25.00
2023-02-11T12:40:46.644Z,26.00
2023-02-11T12:41:46.574Z,25.70
2023-02-11T12:42:46.622Z,25.40
2023-02-11T12:43:46.637Z,26.10
2023-02-11T12:44:46.571Z,24.20
2023-02-11T12:45:46.641Z,25.90
2023-02-11T12:46:46.546Z,25.90
2023-02-11T12:47:46.553Z,25.00
2023-02-11T12:48:46.501Z,24.40
2023-02-11T12:49:46.525Z,25.20
2023-02-11T12:50:46.516Z,24.90
2023-02-11T12:51:46.475Z,24.60
2023-02-11T12:52:46.455Z,24.90
2023-02-11T12:53:47.447Z,23.80